sensor_id;sensor_type;location;lat;lon;timestamp;P1;durP1;ratioP1;P2;durP2;ratioP2
23072;SDS011;34865;51.046;3.732;2022-10-29T00:00:42;19.55;;;7.28;;
23072;SDS011;34865;51.046;3.732;2022-10-29T00:03:09;21.08;;;7.10;;
23072;SDS011;34865;51.046;3.732;2022-10-29T00:05:35;25.35;;;7.45;;
23072;SDS011;34865;51.046;3.732;2022-10-29T00:08:00;24.30;;;7.25;;
23072;SDS011;34865;51.046;3.732;2022-10-29T00:10:26;20.65;;;7.13;;
23072;SDS011;34865;51.046;3.732;2022-10-29T00:12:53;19.45;;;7.82;;
23072;SDS011;34865;51.046;3.732;2022-10-29T00:15:18;19.45;;;7.13;;
23072;SDS011;34865;51.046;3.732;2022-10-29T00:17:44;18.25;;;6.72;;
23072;SDS011;34865;51.046;3.732;2022-10-29T00:20:10;17.40;;;6.68;;
23072;SDS011;34865;51.046;3.732;2022-10-29T00:22:35;23.60;;;7.18;;
23072;SDS011;34865;51.046;3.732;2022-10-29T00:25:01;26.88;;;8.15;;
23072;SDS011;34865;51.046;3.732;2022-10-29T00:27:27;21.25;;;8.40;;
23072;SDS011;34865;51.046;3.732;2022-10-29T00:29:52;27.98;;;7.82;;
23072;SDS011;34865;51.046;3.732;2022-10-29T00:32:19;21.52;;;7.40;;
23072;SDS011;34865;51.046;3.732;2022-10-29T00:34:45;21.70;;;7.90;;
23072;SDS011;34865;51.046;3.732;2022-10-29T00:37:11;21.17;;;7.43;;
23072;SDS011;34865;51.046;3.732;2022-10-29T00:39:37;27.25;;;7.80;;
23072;SDS011;34865;51.046;3.732;2022-10-29T00:42:02;20.05;;;7.78;;
23072;SDS011;34865;51.046;3.732;2022-10-29T00:44:33;19.40;;;8.88;;
23072;SDS011;34865;51.046;3.732;2022-10-29T00:49:28;22.52;;;8.57;;
23072;SDS011;34865;51.046;3.732;2022-10-29T00:51:56;21.35;;;8.70;;
23072;SDS011;34865;51.046;3.732;2022-10-29T00:54:23;24.58;;;9.27;;
23072;SDS011;34865;51.046;3.732;2022-10-29T00:56:53;25.83;;;8.52;;
23072;SDS011;34865;51.046;3.732;2022-10-29T00:59:23;25.42;;;8.68;;
23072;SDS011;34865;51.046;3.732;2022-10-29T01:01:49;17.75;;;8.55;;
23072;SDS011;34865;51.046;3.732;2022-10-29T01:04:15;31.50;;;9.68;;
23072;SDS011;34865;51.046;3.732;2022-10-29T01:06:41;20.30;;;8.93;;
23072;SDS011;34865;51.046;3.732;2022-10-29T01:09:08;20.05;;;8.48;;
23072;SDS011;34865;51.046;3.732;2022-10-29T01:28:29;31.02;;;9.52;;
23072;SDS011;34865;51.046;3.732;2022-10-29T01:31:08;22.27;;;10.10;;
23072;SDS011;34865;51.046;3.732;2022-10-29T01:33:53;23.00;;;8.73;;
23072;SDS011;34865;51.046;3.732;2022-10-29T01:36:39;17.38;;;8.25;;
23072;SDS011;34865;51.046;3.732;2022-10-29T01:39:25;23.58;;;8.98;;
23072;SDS011;34865;51.046;3.732;2022-10-29T01:47:55;33.92;;;8.82;;
23072;SDS011;34865;51.046;3.732;2022-10-29T01:50:28;22.10;;;9.02;;
23072;SDS011;34865;51.046;3.732;2022-10-29T01:52:55;18.02;;;8.75;;
23072;SDS011;34865;51.046;3.732;2022-10-29T01:55:27;20.63;;;8.10;;
23072;SDS011;34865;51.046;3.732;2022-10-29T01:57:54;27.38;;;8.85;;
23072;SDS011;34865;51.046;3.732;2022-10-29T02:00:20;20.73;;;9.57;;
23072;SDS011;34865;51.046;3.732;2022-10-29T02:05:35;22.58;;;8.95;;
23072;SDS011;34865;51.046;3.732;2022-10-29T02:08:35;22.48;;;8.82;;
23072;SDS011;34865;51.046;3.732;2022-10-29T02:11:32;16.65;;;8.02;;
23072;SDS011;34865;51.046;3.732;2022-10-29T02:14:07;20.38;;;9.10;;
23072;SDS011;34865;51.046;3.732;2022-10-29T02:16:39;20.35;;;8.93;;
23072;SDS011;34865;51.046;3.732;2022-10-29T02:19:05;24.27;;;9.10;;
23072;SDS011;34865;51.046;3.732;2022-10-29T02:21:31;20.35;;;9.23;;
23072;SDS011;34865;51.046;3.732;2022-10-29T02:23:56;22.00;;;9.68;;
23072;SDS011;34865;51.046;3.732;2022-10-29T02:26:22;19.05;;;9.60;;
23072;SDS011;34865;51.046;3.732;2022-10-29T02:28:48;28.35;;;11.20;;
23072;SDS011;34865;51.046;3.732;2022-10-29T02:31:13;19.23;;;9.05;;
23072;SDS011;34865;51.046;3.732;2022-10-29T02:33:39;22.02;;;8.68;;
23072;SDS011;34865;51.046;3.732;2022-10-29T02:36:05;19.33;;;8.20;;
23072;SDS011;34865;51.046;3.732;2022-10-29T02:38:31;27.02;;;10.38;;
23072;SDS011;34865;51.046;3.732;2022-10-29T02:40:56;18.77;;;9.65;;
23072;SDS011;34865;51.046;3.732;2022-10-29T02:43:22;21.63;;;9.38;;
23072;SDS011;34865;51.046;3.732;2022-10-29T02:45:48;22.20;;;8.88;;
23072;SDS011;34865;51.046;3.732;2022-10-29T02:48:14;22.50;;;9.85;;
23072;SDS011;34865;51.046;3.732;2022-10-29T02:50:40;25.02;;;9.45;;
23072;SDS011;34865;51.046;3.732;2022-10-29T02:53:06;29.88;;;9.55;;
23072;SDS011;34865;51.046;3.732;2022-10-29T02:55:31;22.42;;;10.02;;
23072;SDS011;34865;51.046;3.732;2022-10-29T02:57:57;23.92;;;8.98;;
23072;SDS011;34865;51.046;3.732;2022-10-29T03:00:22;25.08;;;9.45;;
23072;SDS011;34865;51.046;3.732;2022-10-29T03:02:51;22.25;;;9.63;;
23072;SDS011;34865;51.046;3.732;2022-10-29T03:05:17;22.83;;;10.63;;
23072;SDS011;34865;51.046;3.732;2022-10-29T03:07:42;24.92;;;8.40;;
23072;SDS011;34865;51.046;3.732;2022-10-29T03:10:08;26.73;;;9.10;;
23072;SDS011;34865;51.046;3.732;2022-10-29T03:12:34;26.10;;;9.77;;
23072;SDS011;34865;51.046;3.732;2022-10-29T03:14:59;26.40;;;9.50;;
23072;SDS011;34865;51.046;3.732;2022-10-29T03:17:25;21.70;;;9.05;;
23072;SDS011;34865;51.046;3.732;2022-10-29T03:19:51;23.95;;;9.27;;
23072;SDS011;34865;51.046;3.732;2022-10-29T03:22:16;26.55;;;8.77;;
23072;SDS011;34865;51.046;3.732;2022-10-29T03:24:42;16.67;;;9.05;;
23072;SDS011;34865;51.046;3.732;2022-10-29T03:27:07;20.83;;;9.13;;
23072;SDS011;34865;51.046;3.732;2022-10-29T03:29:33;22.13;;;9.57;;
23072;SDS011;34865;51.046;3.732;2022-10-29T03:32:00;17.90;;;9.10;;
23072;SDS011;34865;51.046;3.732;2022-10-29T03:34:26;18.38;;;9.48;;
23072;SDS011;34865;51.046;3.732;2022-10-29T03:36:51;17.33;;;9.30;;
23072;SDS011;34865;51.046;3.732;2022-10-29T03:39:17;29.33;;;10.70;;
23072;SDS011;34865;51.046;3.732;2022-10-29T03:41:42;27.85;;;10.45;;
23072;SDS011;34865;51.046;3.732;2022-10-29T03:44:08;28.20;;;10.70;;
23072;SDS011;34865;51.046;3.732;2022-10-29T03:46:33;26.02;;;10.65;;
23072;SDS011;34865;51.046;3.732;2022-10-29T03:48:59;23.38;;;10.95;;
23072;SDS011;34865;51.046;3.732;2022-10-29T03:51:24;26.17;;;10.05;;
23072;SDS011;34865;51.046;3.732;2022-10-29T03:53:50;28.30;;;11.15;;
23072;SDS011;34865;51.046;3.732;2022-10-29T03:56:16;27.10;;;10.73;;
23072;SDS011;34865;51.046;3.732;2022-10-29T03:58:41;23.60;;;10.73;;
23072;SDS011;34865;51.046;3.732;2022-10-29T04:01:07;21.23;;;9.73;;
23072;SDS011;34865;51.046;3.732;2022-10-29T04:03:34;25.85;;;10.68;;
23072;SDS011;34865;51.046;3.732;2022-10-29T04:06:02;26.80;;;11.77;;
23072;SDS011;34865;51.046;3.732;2022-10-29T04:08:34;27.63;;;10.93;;
23072;SDS011;34865;51.046;3.732;2022-10-29T04:11:00;32.70;;;10.85;;
23072;SDS011;34865;51.046;3.732;2022-10-29T04:13:25;24.58;;;11.15;;
23072;SDS011;34865;51.046;3.732;2022-10-29T04:15:54;28.58;;;12.00;;
23072;SDS011;34865;51.046;3.732;2022-10-29T04:18:23;29.58;;;12.30;;
23072;SDS011;34865;51.046;3.732;2022-10-29T04:20:48;25.60;;;12.63;;
23072;SDS011;34865;51.046;3.732;2022-10-29T04:23:14;30.73;;;11.52;;
23072;SDS011;34865;51.046;3.732;2022-10-29T04:25:40;28.70;;;12.07;;
23072;SDS011;34865;51.046;3.732;2022-10-29T04:28:05;28.13;;;13.32;;
23072;SDS011;34865;51.046;3.732;2022-10-29T04:30:31;28.27;;;13.20;;
23072;SDS011;34865;51.046;3.732;2022-10-29T04:32:57;25.48;;;12.88;;
23072;SDS011;34865;51.046;3.732;2022-10-29T04:35:23;28.33;;;12.10;;
23072;SDS011;34865;51.046;3.732;2022-10-29T04:37:50;34.35;;;13.55;;
23072;SDS011;34865;51.046;3.732;2022-10-29T04:40:16;30.13;;;12.82;;
23072;SDS011;34865;51.046;3.732;2022-10-29T04:42:41;24.60;;;11.85;;
23072;SDS011;34865;51.046;3.732;2022-10-29T04:45:07;24.15;;;12.25;;
23072;SDS011;34865;51.046;3.732;2022-10-29T04:47:33;31.67;;;12.25;;
23072;SDS011;34865;51.046;3.732;2022-10-29T04:49:58;22.02;;;12.85;;
23072;SDS011;34865;51.046;3.732;2022-10-29T04:52:24;26.77;;;12.75;;
23072;SDS011;34865;51.046;3.732;2022-10-29T04:54:50;25.98;;;12.70;;
23072;SDS011;34865;51.046;3.732;2022-10-29T04:57:15;22.42;;;12.50;;
23072;SDS011;34865;51.046;3.732;2022-10-29T04:59:41;26.90;;;12.88;;
23072;SDS011;34865;51.046;3.732;2022-10-29T05:02:06;31.48;;;13.55;;
23072;SDS011;34865;51.046;3.732;2022-10-29T05:04:33;28.08;;;12.68;;
23072;SDS011;34865;51.046;3.732;2022-10-29T05:06:59;32.15;;;12.07;;
23072;SDS011;34865;51.046;3.732;2022-10-29T05:09:25;24.65;;;13.68;;
23072;SDS011;34865;51.046;3.732;2022-10-29T05:11:50;24.42;;;13.15;;
23072;SDS011;34865;51.046;3.732;2022-10-29T05:14:16;26.88;;;13.55;;
23072;SDS011;34865;51.046;3.732;2022-10-29T05:16:41;26.80;;;14.07;;
23072;SDS011;34865;51.046;3.732;2022-10-29T05:19:07;33.97;;;14.15;;
23072;SDS011;34865;51.046;3.732;2022-10-29T05:21:33;34.85;;;13.93;;
23072;SDS011;34865;51.046;3.732;2022-10-29T05:23:58;33.63;;;14.25;;
23072;SDS011;34865;51.046;3.732;2022-10-29T05:26:24;38.25;;;14.57;;
23072;SDS011;34865;51.046;3.732;2022-10-29T05:28:50;32.20;;;13.93;;
23072;SDS011;34865;51.046;3.732;2022-10-29T05:31:16;30.63;;;15.25;;
23072;SDS011;34865;51.046;3.732;2022-10-29T05:33:42;32.53;;;13.30;;
23072;SDS011;34865;51.046;3.732;2022-10-29T05:36:08;28.25;;;13.98;;
23072;SDS011;34865;51.046;3.732;2022-10-29T05:38:34;28.83;;;14.80;;
23072;SDS011;34865;51.046;3.732;2022-10-29T05:40:59;31.65;;;14.93;;
23072;SDS011;34865;51.046;3.732;2022-10-29T05:43:25;32.38;;;13.93;;
23072;SDS011;34865;51.046;3.732;2022-10-29T05:45:51;31.90;;;14.05;;
23072;SDS011;34865;51.046;3.732;2022-10-29T05:48:17;29.05;;;14.57;;
23072;SDS011;34865;51.046;3.732;2022-10-29T05:50:43;23.00;;;12.55;;
23072;SDS011;34865;51.046;3.732;2022-10-29T05:53:10;38.65;;;13.73;;
23072;SDS011;34865;51.046;3.732;2022-10-29T05:55:37;26.67;;;13.52;;
23072;SDS011;34865;51.046;3.732;2022-10-29T05:58:04;27.05;;;13.50;;
23072;SDS011;34865;51.046;3.732;2022-10-29T06:00:32;38.08;;;14.10;;
23072;SDS011;34865;51.046;3.732;2022-10-29T06:02:59;33.83;;;14.40;;
23072;SDS011;34865;51.046;3.732;2022-10-29T06:05:25;26.38;;;14.65;;
23072;SDS011;34865;51.046;3.732;2022-10-29T06:07:57;36.20;;;14.40;;
23072;SDS011;34865;51.046;3.732;2022-10-29T06:10:24;40.00;;;15.30;;
23072;SDS011;34865;51.046;3.732;2022-10-29T06:12:51;28.45;;;14.50;;
23072;SDS011;34865;51.046;3.732;2022-10-29T06:15:17;34.03;;;13.75;;
23072;SDS011;34865;51.046;3.732;2022-10-29T06:17:43;28.00;;;13.90;;
23072;SDS011;34865;51.046;3.732;2022-10-29T06:20:10;29.65;;;14.25;;
23072;SDS011;34865;51.046;3.732;2022-10-29T06:22:37;28.20;;;14.90;;
23072;SDS011;34865;51.046;3.732;2022-10-29T06:25:03;31.35;;;14.10;;
23072;SDS011;34865;51.046;3.732;2022-10-29T06:27:29;29.65;;;13.93;;
23072;SDS011;34865;51.046;3.732;2022-10-29T06:29:55;27.02;;;13.82;;
23072;SDS011;34865;51.046;3.732;2022-10-29T06:32:21;25.08;;;13.38;;
23072;SDS011;34865;51.046;3.732;2022-10-29T06:34:46;24.10;;;13.45;;
23072;SDS011;34865;51.046;3.732;2022-10-29T06:37:15;28.13;;;12.95;;
23072;SDS011;34865;51.046;3.732;2022-10-29T06:39:41;33.10;;;13.57;;
23072;SDS011;34865;51.046;3.732;2022-10-29T06:42:06;33.15;;;14.10;;
23072;SDS011;34865;51.046;3.732;2022-10-29T06:44:32;33.05;;;14.25;;
23072;SDS011;34865;51.046;3.732;2022-10-29T06:46:57;29.95;;;14.27;;
23072;SDS011;34865;51.046;3.732;2022-10-29T06:49:26;30.63;;;13.82;;
23072;SDS011;34865;51.046;3.732;2022-10-29T06:51:52;29.15;;;13.85;;
23072;SDS011;34865;51.046;3.732;2022-10-29T06:54:17;34.97;;;14.15;;
23072;SDS011;34865;51.046;3.732;2022-10-29T06:56:43;29.30;;;14.00;;
23072;SDS011;34865;51.046;3.732;2022-10-29T06:59:08;25.42;;;14.23;;
23072;SDS011;34865;51.046;3.732;2022-10-29T07:01:34;28.30;;;13.27;;
23072;SDS011;34865;51.046;3.732;2022-10-29T07:04:00;27.88;;;13.55;;
23072;SDS011;34865;51.046;3.732;2022-10-29T07:06:26;28.85;;;14.10;;
23072;SDS011;34865;51.046;3.732;2022-10-29T07:08:52;35.72;;;14.60;;
23072;SDS011;34865;51.046;3.732;2022-10-29T07:11:18;28.02;;;14.07;;
23072;SDS011;34865;51.046;3.732;2022-10-29T07:13:43;34.95;;;15.18;;
23072;SDS011;34865;51.046;3.732;2022-10-29T07:16:09;36.42;;;13.63;;
23072;SDS011;34865;51.046;3.732;2022-10-29T07:18:35;29.08;;;13.00;;
23072;SDS011;34865;51.046;3.732;2022-10-29T07:21:01;27.60;;;12.98;;
23072;SDS011;34865;51.046;3.732;2022-10-29T07:23:27;30.55;;;14.15;;
23072;SDS011;34865;51.046;3.732;2022-10-29T07:25:53;34.33;;;12.90;;
23072;SDS011;34865;51.046;3.732;2022-10-29T07:28:20;30.42;;;13.45;;
23072;SDS011;34865;51.046;3.732;2022-10-29T07:30:47;29.40;;;13.90;;
23072;SDS011;34865;51.046;3.732;2022-10-29T07:33:14;27.50;;;13.55;;
23072;SDS011;34865;51.046;3.732;2022-10-29T07:35:40;39.97;;;14.50;;
23072;SDS011;34865;51.046;3.732;2022-10-29T07:38:07;30.13;;;14.60;;
23072;SDS011;34865;51.046;3.732;2022-10-29T07:40:33;33.85;;;12.30;;
23072;SDS011;34865;51.046;3.732;2022-10-29T07:42:59;35.55;;;13.95;;
23072;SDS011;34865;51.046;3.732;2022-10-29T07:45:25;29.02;;;13.50;;
23072;SDS011;34865;51.046;3.732;2022-10-29T07:47:57;27.35;;;13.55;;
23072;SDS011;34865;51.046;3.732;2022-10-29T07:50:24;29.80;;;12.52;;
23072;SDS011;34865;51.046;3.732;2022-10-29T07:52:50;29.70;;;12.95;;
23072;SDS011;34865;51.046;3.732;2022-10-29T07:55:16;31.13;;;13.43;;
23072;SDS011;34865;51.046;3.732;2022-10-29T07:57:41;35.10;;;12.57;;
23072;SDS011;34865;51.046;3.732;2022-10-29T08:00:07;29.50;;;12.50;;
23072;SDS011;34865;51.046;3.732;2022-10-29T08:02:34;36.10;;;13.77;;
23072;SDS011;34865;51.046;3.732;2022-10-29T08:04:59;31.83;;;12.45;;
23072;SDS011;34865;51.046;3.732;2022-10-29T08:07:25;32.70;;;12.70;;
23072;SDS011;34865;51.046;3.732;2022-10-29T08:09:51;24.55;;;11.85;;
23072;SDS011;34865;51.046;3.732;2022-10-29T08:12:16;31.10;;;13.77;;
23072;SDS011;34865;51.046;3.732;2022-10-29T08:14:42;26.73;;;12.65;;
23072;SDS011;34865;51.046;3.732;2022-10-29T08:17:08;24.40;;;11.95;;
23072;SDS011;34865;51.046;3.732;2022-10-29T08:19:34;26.15;;;12.30;;
23072;SDS011;34865;51.046;3.732;2022-10-29T08:21:59;26.55;;;11.82;;
23072;SDS011;34865;51.046;3.732;2022-10-29T08:24:25;27.67;;;12.60;;
23072;SDS011;34865;51.046;3.732;2022-10-29T08:26:50;29.38;;;12.30;;
23072;SDS011;34865;51.046;3.732;2022-10-29T08:29:16;25.13;;;11.60;;
23072;SDS011;34865;51.046;3.732;2022-10-29T08:31:42;25.02;;;11.48;;
23072;SDS011;34865;51.046;3.732;2022-10-29T08:34:07;26.13;;;10.73;;
23072;SDS011;34865;51.046;3.732;2022-10-29T08:36:33;27.98;;;11.63;;
23072;SDS011;34865;51.046;3.732;2022-10-29T08:38:58;25.05;;;11.50;;
23072;SDS011;34865;51.046;3.732;2022-10-29T08:41:32;24.90;;;11.45;;
23072;SDS011;34865;51.046;3.732;2022-10-29T08:44:05;23.50;;;11.52;;
23072;SDS011;34865;51.046;3.732;2022-10-29T08:46:59;25.52;;;11.88;;
23072;SDS011;34865;51.046;3.732;2022-10-29T08:49:46;26.88;;;10.75;;
23072;SDS011;34865;51.046;3.732;2022-10-29T08:52:16;20.42;;;9.60;;
23072;SDS011;34865;51.046;3.732;2022-10-29T08:57:30;25.75;;;9.23;;
23072;SDS011;34865;51.046;3.732;2022-10-29T09:02:31;23.17;;;9.02;;
23072;SDS011;34865;51.046;3.732;2022-10-29T09:04:57;22.77;;;8.40;;
23072;SDS011;34865;51.046;3.732;2022-10-29T09:07:38;22.58;;;8.77;;
23072;SDS011;34865;51.046;3.732;2022-10-29T09:10:26;20.90;;;7.90;;
23072;SDS011;34865;51.046;3.732;2022-10-29T09:13:05;18.00;;;7.40;;
23072;SDS011;34865;51.046;3.732;2022-10-29T09:18:45;19.45;;;7.18;;
23072;SDS011;34865;51.046;3.732;2022-10-29T09:21:37;27.58;;;8.05;;
23072;SDS011;34865;51.046;3.732;2022-10-29T09:29:44;18.05;;;6.47;;
23072;SDS011;34865;51.046;3.732;2022-10-29T09:32:24;18.63;;;6.07;;
23072;SDS011;34865;51.046;3.732;2022-10-29T09:35:12;21.65;;;6.30;;
23072;SDS011;34865;51.046;3.732;2022-10-29T09:37:46;17.17;;;5.63;;
23072;SDS011;34865;51.046;3.732;2022-10-29T09:40:28;13.20;;;5.40;;
23072;SDS011;34865;51.046;3.732;2022-10-29T09:45:56;22.77;;;6.57;;
23072;SDS011;34865;51.046;3.732;2022-10-29T09:48:32;19.90;;;6.35;;
23072;SDS011;34865;51.046;3.732;2022-10-29T09:53:52;21.25;;;5.35;;
23072;SDS011;34865;51.046;3.732;2022-10-29T09:56:18;18.83;;;5.53;;
23072;SDS011;34865;51.046;3.732;2022-10-29T09:58:45;22.85;;;6.45;;
23072;SDS011;34865;51.046;3.732;2022-10-29T10:01:16;22.42;;;5.72;;
23072;SDS011;34865;51.046;3.732;2022-10-29T10:03:42;18.70;;;5.65;;
23072;SDS011;34865;51.046;3.732;2022-10-29T10:06:15;14.75;;;4.85;;
23072;SDS011;34865;51.046;3.732;2022-10-29T10:11:39;18.30;;;6.07;;
23072;SDS011;34865;51.046;3.732;2022-10-29T10:14:16;18.73;;;5.97;;
23072;SDS011;34865;51.046;3.732;2022-10-29T10:16:55;13.45;;;5.57;;
23072;SDS011;34865;51.046;3.732;2022-10-29T10:19:23;23.88;;;5.45;;
23072;SDS011;34865;51.046;3.732;2022-10-29T10:21:55;15.73;;;5.05;;
23072;SDS011;34865;51.046;3.732;2022-10-29T10:24:33;19.27;;;6.60;;
23072;SDS011;34865;51.046;3.732;2022-10-29T10:27:01;14.73;;;6.43;;
23072;SDS011;34865;51.046;3.732;2022-10-29T10:32:28;19.98;;;6.40;;
23072;SDS011;34865;51.046;3.732;2022-10-29T10:34:53;15.15;;;5.32;;
23072;SDS011;34865;51.046;3.732;2022-10-29T10:37:19;18.02;;;5.00;;
23072;SDS011;34865;51.046;3.732;2022-10-29T10:39:50;19.10;;;5.57;;
23072;SDS011;34865;51.046;3.732;2022-10-29T10:42:23;18.27;;;5.57;;
23072;SDS011;34865;51.046;3.732;2022-10-29T10:47:48;14.50;;;5.68;;
23072;SDS011;34865;51.046;3.732;2022-10-29T10:50:24;21.42;;;5.82;;
23072;SDS011;34865;51.046;3.732;2022-10-29T10:52:50;16.73;;;4.65;;
23072;SDS011;34865;51.046;3.732;2022-10-29T10:55:20;18.50;;;6.13;;
23072;SDS011;34865;51.046;3.732;2022-10-29T10:57:58;23.63;;;5.32;;
23072;SDS011;34865;51.046;3.732;2022-10-29T11:00:35;20.05;;;5.78;;
23072;SDS011;34865;51.046;3.732;2022-10-29T11:05:42;19.88;;;6.45;;
23072;SDS011;34865;51.046;3.732;2022-10-29T11:08:17;17.10;;;5.50;;
23072;SDS011;34865;51.046;3.732;2022-10-29T11:10:50;15.93;;;4.88;;
23072;SDS011;34865;51.046;3.732;2022-10-29T11:13:22;23.52;;;10.85;;
23072;SDS011;34865;51.046;3.732;2022-10-29T11:18:28;17.70;;;6.15;;
23072;SDS011;34865;51.046;3.732;2022-10-29T11:23:34;31.75;;;6.70;;
23072;SDS011;34865;51.046;3.732;2022-10-29T11:26:07;19.95;;;6.28;;
23072;SDS011;34865;51.046;3.732;2022-10-29T11:28:49;15.02;;;5.57;;
23072;SDS011;34865;51.046;3.732;2022-10-29T11:31:46;13.73;;;5.40;;
23072;SDS011;34865;51.046;3.732;2022-10-29T11:37:06;19.30;;;5.78;;
23072;SDS011;34865;51.046;3.732;2022-10-29T11:41:03;17.20;;;5.20;;
23072;SDS011;34865;51.046;3.732;2022-10-29T11:43:01;25.27;;;5.70;;
23072;SDS011;34865;51.046;3.732;2022-10-29T11:48:39;16.52;;;5.93;;
23072;SDS011;34865;51.046;3.732;2022-10-29T11:51:18;18.30;;;6.03;;
23072;SDS011;34865;51.046;3.732;2022-10-29T12:13:10;17.98;;;5.68;;
23072;SDS011;34865;51.046;3.732;2022-10-29T12:18:34;19.48;;;5.40;;
23072;SDS011;34865;51.046;3.732;2022-10-29T12:21:19;18.17;;;5.75;;
23072;SDS011;34865;51.046;3.732;2022-10-29T12:26:35;18.33;;;5.93;;
23072;SDS011;34865;51.046;3.732;2022-10-29T12:34:30;18.67;;;5.70;;
23072;SDS011;34865;51.046;3.732;2022-10-29T12:37:09;15.10;;;5.25;;
23072;SDS011;34865;51.046;3.732;2022-10-29T12:39:39;17.58;;;5.40;;
23072;SDS011;34865;51.046;3.732;2022-10-29T12:42:13;17.83;;;5.53;;
23072;SDS011;34865;51.046;3.732;2022-10-29T12:56:21;20.10;;;5.50;;
23072;SDS011;34865;51.046;3.732;2022-10-29T12:58:51;22.80;;;5.70;;
23072;SDS011;34865;51.046;3.732;2022-10-29T13:03:58;21.08;;;5.55;;
23072;SDS011;34865;51.046;3.732;2022-10-29T13:11:48;16.05;;;5.53;;
23072;SDS011;34865;51.046;3.732;2022-10-29T13:15:02;17.52;;;4.88;;
23072;SDS011;34865;51.046;3.732;2022-10-29T13:20:06;28.63;;;5.82;;
23072;SDS011;34865;51.046;3.732;2022-10-29T13:22:49;19.63;;;5.38;;
23072;SDS011;34865;51.046;3.732;2022-10-29T13:25:27;16.63;;;5.55;;
23072;SDS011;34865;51.046;3.732;2022-10-29T13:27:53;17.13;;;5.38;;
23072;SDS011;34865;51.046;3.732;2022-10-29T13:30:23;16.73;;;5.10;;
23072;SDS011;34865;51.046;3.732;2022-10-29T13:32:53;26.23;;;6.50;;
23072;SDS011;34865;51.046;3.732;2022-10-29T13:42:47;16.15;;;5.95;;
23072;SDS011;34865;51.046;3.732;2022-10-29T13:45:25;21.30;;;5.07;;
23072;SDS011;34865;51.046;3.732;2022-10-29T13:47:52;16.50;;;6.47;;
23072;SDS011;34865;51.046;3.732;2022-10-29T13:50:25;27.00;;;5.93;;
23072;SDS011;34865;51.046;3.732;2022-10-29T13:52:51;32.63;;;6.68;;
23072;SDS011;34865;51.046;3.732;2022-10-29T13:55:18;19.33;;;5.63;;
23072;SDS011;34865;51.046;3.732;2022-10-29T14:00:38;18.90;;;5.53;;
23072;SDS011;34865;51.046;3.732;2022-10-29T14:03:11;21.95;;;5.40;;
23072;SDS011;34865;51.046;3.732;2022-10-29T14:05:46;17.75;;;5.07;;
23072;SDS011;34865;51.046;3.732;2022-10-29T14:10:45;17.20;;;4.75;;
23072;SDS011;34865;51.046;3.732;2022-10-29T14:15:38;23.60;;;4.80;;
23072;SDS011;34865;51.046;3.732;2022-10-29T14:18:25;21.65;;;5.47;;
23072;SDS011;34865;51.046;3.732;2022-10-29T14:20:55;19.52;;;5.40;;
23072;SDS011;34865;51.046;3.732;2022-10-29T14:23:22;22.27;;;5.32;;
23072;SDS011;34865;51.046;3.732;2022-10-29T14:25:52;21.80;;;4.78;;
23072;SDS011;34865;51.046;3.732;2022-10-29T14:28:31;22.35;;;5.35;;
23072;SDS011;34865;51.046;3.732;2022-10-29T14:31:04;22.10;;;6.10;;
23072;SDS011;34865;51.046;3.732;2022-10-29T14:33:34;15.27;;;5.07;;
23072;SDS011;34865;51.046;3.732;2022-10-29T14:38:46;28.83;;;5.45;;
23072;SDS011;34865;51.046;3.732;2022-10-29T14:41:18;15.10;;;4.95;;
23072;SDS011;34865;51.046;3.732;2022-10-29T14:44:08;19.23;;;5.32;;
23072;SDS011;34865;51.046;3.732;2022-10-29T14:46:39;17.35;;;5.45;;
23072;SDS011;34865;51.046;3.732;2022-10-29T14:49:11;20.00;;;5.43;;
23072;SDS011;34865;51.046;3.732;2022-10-29T14:51:39;16.95;;;4.95;;
23072;SDS011;34865;51.046;3.732;2022-10-29T14:54:14;14.27;;;4.57;;
23072;SDS011;34865;51.046;3.732;2022-10-29T14:56:47;15.48;;;5.47;;
23072;SDS011;34865;51.046;3.732;2022-10-29T14:59:17;16.00;;;4.78;;
23072;SDS011;34865;51.046;3.732;2022-10-29T15:01:49;16.77;;;5.97;;
23072;SDS011;34865;51.046;3.732;2022-10-29T15:04:20;16.83;;;5.40;;
23072;SDS011;34865;51.046;3.732;2022-10-29T15:06:49;17.98;;;5.25;;
23072;SDS011;34865;51.046;3.732;2022-10-29T15:09:15;18.77;;;5.15;;
23072;SDS011;34865;51.046;3.732;2022-10-29T15:14:49;11.75;;;4.38;;
23072;SDS011;34865;51.046;3.732;2022-10-29T15:17:23;15.70;;;5.07;;
23072;SDS011;34865;51.046;3.732;2022-10-29T15:19:53;18.02;;;4.63;;
23072;SDS011;34865;51.046;3.732;2022-10-29T15:22:36;19.92;;;5.32;;
23072;SDS011;34865;51.046;3.732;2022-10-29T15:25:06;20.50;;;5.63;;
23072;SDS011;34865;51.046;3.732;2022-10-29T15:27:39;14.98;;;4.63;;
23072;SDS011;34865;51.046;3.732;2022-10-29T15:30:05;21.17;;;6.60;;
23072;SDS011;34865;51.046;3.732;2022-10-29T15:32:31;18.27;;;6.05;;
23072;SDS011;34865;51.046;3.732;2022-10-29T15:34:57;22.25;;;5.70;;
23072;SDS011;34865;51.046;3.732;2022-10-29T15:42:41;16.60;;;4.78;;
23072;SDS011;34865;51.046;3.732;2022-10-29T15:47:41;15.35;;;4.85;;
23072;SDS011;34865;51.046;3.732;2022-10-29T15:50:20;12.35;;;4.80;;
23072;SDS011;34865;51.046;3.732;2022-10-29T15:52:52;22.88;;;5.03;;
23072;SDS011;34865;51.046;3.732;2022-10-29T15:55:24;24.60;;;6.13;;
23072;SDS011;34865;51.046;3.732;2022-10-29T15:57:58;24.88;;;5.90;;
23072;SDS011;34865;51.046;3.732;2022-10-29T16:00:27;17.92;;;5.50;;
23072;SDS011;34865;51.046;3.732;2022-10-29T16:02:53;19.80;;;5.28;;
23072;SDS011;34865;51.046;3.732;2022-10-29T16:05:24;17.05;;;5.07;;
23072;SDS011;34865;51.046;3.732;2022-10-29T16:07:49;14.50;;;4.80;;
23072;SDS011;34865;51.046;3.732;2022-10-29T16:10:17;26.90;;;5.85;;
23072;SDS011;34865;51.046;3.732;2022-10-29T16:12:45;22.88;;;6.07;;
23072;SDS011;34865;51.046;3.732;2022-10-29T16:15:12;19.55;;;5.30;;
23072;SDS011;34865;51.046;3.732;2022-10-29T16:17:42;24.73;;;6.53;;
23072;SDS011;34865;51.046;3.732;2022-10-29T16:20:12;15.77;;;5.90;;
23072;SDS011;34865;51.046;3.732;2022-10-29T16:22:39;20.13;;;6.00;;
23072;SDS011;34865;51.046;3.732;2022-10-29T16:25:14;24.30;;;6.70;;
23072;SDS011;34865;51.046;3.732;2022-10-29T16:27:43;17.83;;;5.38;;
23072;SDS011;34865;51.046;3.732;2022-10-29T16:30:09;21.00;;;5.45;;
23072;SDS011;34865;51.046;3.732;2022-10-29T16:32:35;18.23;;;5.75;;
23072;SDS011;34865;51.046;3.732;2022-10-29T16:35:05;20.15;;;5.88;;
23072;SDS011;34865;51.046;3.732;2022-10-29T16:37:38;14.20;;;5.78;;
23072;SDS011;34865;51.046;3.732;2022-10-29T16:40:04;18.88;;;5.55;;
23072;SDS011;34865;51.046;3.732;2022-10-29T16:42:31;16.58;;;5.18;;
23072;SDS011;34865;51.046;3.732;2022-10-29T16:44:58;22.02;;;6.05;;
23072;SDS011;34865;51.046;3.732;2022-10-29T16:47:24;15.77;;;5.70;;
23072;SDS011;34865;51.046;3.732;2022-10-29T16:49:49;17.25;;;5.53;;
23072;SDS011;34865;51.046;3.732;2022-10-29T16:52:15;19.25;;;5.93;;
23072;SDS011;34865;51.046;3.732;2022-10-29T16:54:41;17.73;;;5.55;;
23072;SDS011;34865;51.046;3.732;2022-10-29T16:57:07;19.67;;;5.30;;
23072;SDS011;34865;51.046;3.732;2022-10-29T16:59:32;21.33;;;6.20;;
23072;SDS011;34865;51.046;3.732;2022-10-29T17:01:58;20.90;;;6.00;;
23072;SDS011;34865;51.046;3.732;2022-10-29T17:04:24;13.60;;;5.28;;
23072;SDS011;34865;51.046;3.732;2022-10-29T17:06:50;21.48;;;6.00;;
23072;SDS011;34865;51.046;3.732;2022-10-29T17:09:16;23.98;;;6.57;;
23072;SDS011;34865;51.046;3.732;2022-10-29T17:11:41;18.08;;;5.78;;